Brooklyn, Ohio
Current Conditions -  °F | °C
As of 5:53 PM on Thursday 20 Nov 2014 (Local Time) from KBKL Reporting Station
Light Snow Light Snow  
Wind Chill: 11°   Ceiling: 3500
Heat Index: 26°   Visibility: 8mi
Dew Point: 14°   Wind: 24mph
Humidity: 60%   Direction: 240°WSW
Pressure: 30.04"   Gusts: 37mph
Location:  41.44°N, 81.74°W
Report Text: KBKL 202253Z 24021G32KT 8SM -SN BKN035 OVC050 M03/M10 A3004 RMK AO2 PK WND 22033/2235 SNB41 SLP179 P0000 T10331100
Loading
Personal Weather Stations






























Interactive Weather Map New forecast layout! Learn more

10-Day Weather Forecast

Advertisements
Track Severe Weather on mobile